Time;durP1;ratioP1;P1;durP2;ratioP2;P2;SDS_P1;SDS_P2;PMS_P1;PMS_P2;Temp;Humidity;BMP_temperature;BMP_pressure;BME280_temperature;BME280_humidity;BME280_pressure;Samples;Min_cycle;Max_cycle;Signal;HPM_P1;HPM_P2
2024/01/14 00:02:09;;;;;;;73.82;68.13;;;;;;;;;;5003440;28;20209;-86
2024/01/14 00:04:36;;;;;;;79.28;73.65;;;;;;;;;;5003925;28;20210;-86
2024/01/14 00:07:05;;;;;;;74.05;69.15;;;;;;;;;;5003622;28;20662;-87
2024/01/14 00:09:32;;;;;;;75.78;70.75;;;;;;;;;;5003255;28;20280;-86
2024/01/14 00:11:59;;;;;;;84.82;78.43;;;;;;;;;;5003626;28;20270;-86
2024/01/14 00:14:26;;;;;;;86.82;80.22;;;;;;;;;;4993503;28;20648;-87
2024/01/14 00:16:53;;;;;;;80.60;75.28;;;;;;;;;;4984672;28;20210;-87
2024/01/14 00:19:20;;;;;;;88.80;82.63;;;;;;;;;;4984275;28;20238;-86
2024/01/14 00:21:47;;;;;;;81.30;74.95;;;;;;;;;;4983537;28;20214;-86
2024/01/14 00:24:15;;;;;;;78.75;73.20;;;;;;;;;;4984025;28;20202;-86
2024/01/14 00:26:42;;;;;;;88.13;81.43;;;;;;;;;;4984558;28;20282;-85
2024/01/14 00:29:09;;;;;;;75.10;70.30;;;;;;;;;;4984149;28;20285;-86
2024/01/14 00:31:36;;;;;;;73.45;68.32;;;;;;;;;;4990147;28;20218;-86
2024/01/14 00:34:04;;;;;;;68.75;64.03;;;;;;;;;;5002437;28;20212;-87
2024/01/14 00:36:31;;;;;;;75.40;69.32;;;;;;;;;;5003628;28;20222;-87
2024/01/14 00:38:58;;;;;;;73.82;68.22;;;;;;;;;;5003144;28;20202;-87
2024/01/14 00:41:26;;;;;;;83.07;76.13;;;;;;;;;;5003173;28;20214;-87
2024/01/14 00:43:53;;;;;;;77.22;72.80;;;;;;;;;;5003797;28;20210;-86
2024/01/14 00:46:20;;;;;;;87.75;80.28;;;;;;;;;;5004368;28;20307;-86
2024/01/14 00:48:47;;;;;;;82.72;76.25;;;;;;;;;;5004216;28;20226;-86
2024/01/14 00:51:14;;;;;;;77.03;71.85;;;;;;;;;;5007106;28;20910;-86
2024/01/14 00:53:41;;;;;;;81.10;74.80;;;;;;;;;;5007461;28;20205;-86
2024/01/14 00:56:08;;;;;;;73.88;68.32;;;;;;;;;;5008456;28;20234;-88
2024/01/14 00:58:36;;;;;;;72.43;67.40;;;;;;;;;;5009019;28;20300;-86
2024/01/14 01:01:03;;;;;;;73.93;66.55;;;;;;;;;;5008123;28;20209;-86
2024/01/14 01:03:30;;;;;;;69.25;64.63;;;;;;;;;;5007543;28;20306;-87
2024/01/14 01:05:57;;;;;;;68.60;64.45;;;;;;;;;;5008889;28;20326;-86
2024/01/14 01:08:24;;;;;;;67.55;62.85;;;;;;;;;;5008557;28;20202;-86
2024/01/14 01:10:52;;;;;;;60.05;56.42;;;;;;;;;;5007092;28;20221;-86
2024/01/14 01:13:18;;;;;;;65.65;61.60;;;;;;;;;;5007145;28;20245;-86
2024/01/14 01:15:47;;;;;;;68.00;63.17;;;;;;;;;;5008263;28;20267;-86
2024/01/14 01:18:14;;;;;;;67.80;63.75;;;;;;;;;;5008121;28;20194;-87
2024/01/14 01:20:41;;;;;;;63.10;59.30;;;;;;;;;;5007649;28;20206;-87
2024/01/14 01:23:08;;;;;;;68.18;64.25;;;;;;;;;;5007053;28;20187;-86
2024/01/14 01:25:35;;;;;;;78.13;72.57;;;;;;;;;;5007229;28;20226;-86
2024/01/14 01:28:02;;;;;;;65.78;62.05;;;;;;;;;;5007558;28;20236;-86
2024/01/14 01:30:29;;;;;;;67.35;62.92;;;;;;;;;;5007954;28;20222;-86
2024/01/14 01:32:57;;;;;;;63.85;60.25;;;;;;;;;;5007082;28;20210;-86
2024/01/14 01:35:24;;;;;;;69.40;64.22;;;;;;;;;;5008242;28;20226;-85
2024/01/14 01:37:51;;;;;;;72.10;67.15;;;;;;;;;;5007409;28;20234;-85
2024/01/14 01:40:18;;;;;;;67.07;63.05;;;;;;;;;;5000748;28;20206;-86
2024/01/14 01:42:45;;;;;;;72.47;67.03;;;;;;;;;;5004178;28;20276;-86
2024/01/14 01:45:12;;;;;;;74.60;69.38;;;;;;;;;;5007444;28;20227;-86
2024/01/14 01:47:40;;;;;;;76.53;70.00;;;;;;;;;;5007691;28;20212;-86
2024/01/14 01:50:10;;;;;;;81.82;75.15;;;;;;;;;;5007154;28;20271;-85
2024/01/14 01:52:37;;;;;;;84.10;76.70;;;;;;;;;;5005882;28;20237;-86
2024/01/14 01:55:04;;;;;;;81.45;75.32;;;;;;;;;;5007284;28;20230;-86
2024/01/14 01:57:31;;;;;;;79.03;73.32;;;;;;;;;;5007051;28;20206;-86
2024/01/14 01:59:59;;;;;;;85.32;78.13;;;;;;;;;;5007164;28;20693;-86
2024/01/14 02:02:26;;;;;;;76.95;70.68;;;;;;;;;;5004749;28;20218;-86
2024/01/14 02:04:54;;;;;;;73.57;68.07;;;;;;;;;;5007691;28;20234;-86
2024/01/14 02:07:22;;;;;;;77.47;71.35;;;;;;;;;;5007064;28;20210;-86
2024/01/14 02:09:49;;;;;;;66.45;62.28;;;;;;;;;;5006307;28;20226;-86
2024/01/14 02:12:16;;;;;;;63.00;58.95;;;;;;;;;;5004933;28;20261;-87
2024/01/14 02:14:43;;;;;;;65.20;61.10;;;;;;;;;;5001063;28;20222;-87
2024/01/14 02:17:10;;;;;;;66.15;61.97;;;;;;;;;;5003966;28;20598;-86
2024/01/14 02:19:37;;;;;;;61.38;57.80;;;;;;;;;;5006355;28;20237;-86
2024/01/14 02:22:09;;;;;;;75.82;69.57;;;;;;;;;;5006409;28;20218;-86
2024/01/14 02:24:38;;;;;;;77.30;71.10;;;;;;;;;;5005923;28;20214;-86
2024/01/14 02:27:05;;;;;;;71.47;65.95;;;;;;;;;;5006349;28;20198;-86
2024/01/14 02:29:32;;;;;;;79.22;72.65;;;;;;;;;;5006465;28;20316;-85
2024/01/14 02:31:59;;;;;;;71.93;66.90;;;;;;;;;;5006278;28;20301;-86
2024/01/14 02:34:26;;;;;;;61.92;58.45;;;;;;;;;;5005319;28;20214;-86
2024/01/14 02:36:53;;;;;;;70.10;64.75;;;;;;;;;;5005991;28;20203;-86
2024/01/14 02:39:20;;;;;;;71.70;66.95;;;;;;;;;;5005781;28;20210;-86
2024/01/14 02:41:48;;;;;;;72.25;66.93;;;;;;;;;;5006193;28;20202;-86
2024/01/14 02:44:15;;;;;;;65.28;61.25;;;;;;;;;;5004904;28;20214;-86
2024/01/14 02:46:42;;;;;;;69.22;65.03;;;;;;;;;;5006190;28;20278;-86
2024/01/14 02:49:09;;;;;;;70.47;65.32;;;;;;;;;;5006157;28;20214;-85
2024/01/14 02:51:36;;;;;;;67.18;62.25;;;;;;;;;;5005350;28;20198;-86
2024/01/14 02:54:04;;;;;;;64.65;60.33;;;;;;;;;;5004272;28;20210;-86
2024/01/14 02:56:31;;;;;;;72.68;67.03;;;;;;;;;;5004540;28;20226;-86
2024/01/14 02:58:59;;;;;;;61.28;58.17;;;;;;;;;;5004902;28;20210;-86
2024/01/14 03:01:26;;;;;;;68.25;63.08;;;;;;;;;;5004357;28;20218;-86
2024/01/14 03:03:53;;;;;;;61.28;57.35;;;;;;;;;;5003761;28;20218;-85
2024/01/14 03:06:20;;;;;;;63.33;59.08;;;;;;;;;;5004445;28;20233;-86
2024/01/14 03:08:47;;;;;;;69.07;63.95;;;;;;;;;;5004621;28;20201;-84
2024/01/14 03:11:14;;;;;;;73.18;67.70;;;;;;;;;;5004391;28;20226;-85
2024/01/14 03:13:41;;;;;;;63.58;59.47;;;;;;;;;;5002600;28;20210;-86
2024/01/14 03:16:09;;;;;;;72.20;66.95;;;;;;;;;;5004367;28;20230;-86
2024/01/14 03:18:36;;;;;;;68.93;64.05;;;;;;;;;;5004022;28;20207;-86
2024/01/14 03:21:03;;;;;;;74.75;68.57;;;;;;;;;;5003958;28;20633;-85
2024/01/14 03:23:30;;;;;;;81.90;73.72;;;;;;;;;;5003161;28;20214;-85
2024/01/14 03:25:57;;;;;;;69.15;63.92;;;;;;;;;;5004039;28;20265;-86
2024/01/14 03:28:24;;;;;;;68.38;63.83;;;;;;;;;;5004461;28;20613;-85
2024/01/14 03:30:52;;;;;;;68.03;62.85;;;;;;;;;;5004211;28;20225;-86
2024/01/14 03:33:20;;;;;;;65.32;61.28;;;;;;;;;;5003907;28;20198;-85
2024/01/14 03:35:47;;;;;;;77.72;70.65;;;;;;;;;;5003696;28;20249;-86
2024/01/14 03:38:14;;;;;;;74.10;68.45;;;;;;;;;;5004367;28;20210;-86
2024/01/14 03:40:41;;;;;;;75.57;69.88;;;;;;;;;;5001904;28;20194;-86
2024/01/14 03:43:08;;;;;;;76.57;70.75;;;;;;;;;;4984007;28;20199;-86
2024/01/14 03:45:35;;;;;;;69.13;63.88;;;;;;;;;;4983591;28;20261;-85
2024/01/14 03:48:02;;;;;;;78.05;71.82;;;;;;;;;;4984984;28;20210;-85
2024/01/14 03:50:31;;;;;;;68.68;63.42;;;;;;;;;;4984780;28;20246;-86
2024/01/14 03:52:58;;;;;;;83.78;76.28;;;;;;;;;;4983788;28;20206;-86
2024/01/14 03:55:25;;;;;;;74.60;69.18;;;;;;;;;;4982534;28;20285;-87
2024/01/14 03:57:52;;;;;;;71.45;66.15;;;;;;;;;;4983319;28;20207;-86
2024/01/14 04:00:19;;;;;;;71.40;65.43;;;;;;;;;;4983262;28;20203;-86
2024/01/14 04:02:46;;;;;;;66.95;62.60;;;;;;;;;;4982957;28;20214;-86
2024/01/14 04:05:14;;;;;;;65.75;61.25;;;;;;;;;;4982797;28;20238;-85
2024/01/14 04:07:42;;;;;;;66.15;61.55;;;;;;;;;;4983963;28;20207;-86
2024/01/14 04:10:12;;;;;;;73.82;67.82;;;;;;;;;;4983203;28;20218;-86
2024/01/14 04:12:40;;;;;;;65.90;60.33;;;;;;;;;;4983049;28;20377;-86
2024/01/14 04:15:08;;;;;;;64.93;60.58;;;;;;;;;;4982921;28;20636;-86
2024/01/14 04:17:35;;;;;;;73.57;67.45;;;;;;;;;;4983221;28;20210;-86
2024/01/14 04:20:03;;;;;;;73.60;67.88;;;;;;;;;;4982935;28;21024;-86
2024/01/14 04:22:30;;;;;;;70.57;64.80;;;;;;;;;;4982566;28;20567;-86
2024/01/14 04:24:59;;;;;;;72.32;67.60;;;;;;;;;;4983070;28;20289;-86
2024/01/14 04:27:26;;;;;;;75.63;69.57;;;;;;;;;;4984809;28;20203;-86
2024/01/14 04:29:53;;;;;;;77.95;72.13;;;;;;;;;;4984074;28;20227;-85
2024/01/14 04:32:20;;;;;;;65.43;61.08;;;;;;;;;;4983122;28;20214;-87
2024/01/14 04:34:47;;;;;;;70.97;65.60;;;;;;;;;;4982843;28;20234;-86
2024/01/14 04:37:15;;;;;;;72.45;67.78;;;;;;;;;;4984528;28;20207;-86
2024/01/14 04:39:42;;;;;;;82.65;76.95;;;;;;;;;;4984001;28;20207;-86
2024/01/14 04:42:10;;;;;;;80.25;73.47;;;;;;;;;;4984333;28;20285;-84
2024/01/14 04:44:38;;;;;;;72.43;67.60;;;;;;;;;;4988562;28;20215;-86
2024/01/14 04:47:05;;;;;;;81.05;75.43;;;;;;;;;;4982867;28;20222;-86
2024/01/14 04:49:32;;;;;;;88.45;81.65;;;;;;;;;;4983905;28;20355;-86
2024/01/14 04:51:59;;;;;;;82.95;76.63;;;;;;;;;;4983353;28;20202;-86
2024/01/14 04:54:26;;;;;;;89.03;80.88;;;;;;;;;;4987506;28;20214;-86
2024/01/14 04:56:53;;;;;;;89.55;81.63;;;;;;;;;;5003305;28;20214;-86
2024/01/14 04:59:22;;;;;;;79.13;74.43;;;;;;;;;;5003440;28;20206;-85
2024/01/14 05:01:49;;;;;;;88.80;81.15;;;;;;;;;;5003259;28;20202;-85
2024/01/14 05:04:16;;;;;;;83.05;77.57;;;;;;;;;;5002569;28;20248;-86
2024/01/14 05:06:43;;;;;;;84.45;78.47;;;;;;;;;;5000957;28;20261;-87
2024/01/14 05:09:10;;;;;;;75.70;70.80;;;;;;;;;;5002679;28;20233;-86
2024/01/14 05:11:37;;;;;;;87.13;79.75;;;;;;;;;;4999901;28;20222;-79
2024/01/14 05:14:04;;;;;;;86.25;80.07;;;;;;;;;;4996134;28;20202;-79
2024/01/14 05:16:32;;;;;;;94.18;85.55;;;;;;;;;;4996209;28;20718;-79
2024/01/14 05:18:59;;;;;;;79.72;75.10;;;;;;;;;;4997004;28;20210;-80
2024/01/14 05:21:26;;;;;;;81.72;76.00;;;;;;;;;;4996202;28;20207;-78
2024/01/14 05:23:53;;;;;;;72.20;67.47;;;;;;;;;;4995873;28;20628;-79
2024/01/14 05:26:24;;;;;;;74.35;68.90;;;;;;;;;;4995924;28;20231;-80
2024/01/14 05:28:51;;;;;;;68.82;64.05;;;;;;;;;;4996239;28;20210;-79
2024/01/14 05:31:18;;;;;;;67.63;62.92;;;;;;;;;;4996203;28;20226;-78
2024/01/14 05:33:46;;;;;;;68.22;63.67;;;;;;;;;;4995757;28;20222;-79
2024/01/14 05:36:13;;;;;;;69.10;64.72;;;;;;;;;;4997267;28;20226;-79
2024/01/14 05:38:40;;;;;;;72.22;66.35;;;;;;;;;;4999897;28;20194;-80
2024/01/14 05:41:07;;;;;;;78.97;72.47;;;;;;;;;;4996442;28;20207;-80
2024/01/14 05:43:34;;;;;;;76.82;70.68;;;;;;;;;;4979145;28;20203;-80
2024/01/14 05:46:01;;;;;;;75.93;70.32;;;;;;;;;;4995013;28;20238;-80
2024/01/14 05:48:28;;;;;;;106.97;95.75;;;;;;;;;;4998742;28;20213;-80
2024/01/14 05:50:57;;;;;;;95.93;86.20;;;;;;;;;;4998997;28;20772;-80
2024/01/14 05:53:24;;;;;;;87.25;78.63;;;;;;;;;;4999074;28;20217;-80
2024/01/14 05:55:51;;;;;;;65.07;60.88;;;;;;;;;;4998681;28;20570;-80
2024/01/14 05:58:18;;;;;;;84.03;76.57;;;;;;;;;;4998867;28;20210;-78
2024/01/14 06:00:45;;;;;;;81.90;75.57;;;;;;;;;;4999526;28;20202;-80
2024/01/14 06:03:12;;;;;;;84.55;77.22;;;;;;;;;;4998277;28;20276;-79
2024/01/14 06:05:39;;;;;;;106.00;96.60;;;;;;;;;;4998706;28;20234;-80
2024/01/14 06:08:07;;;;;;;88.13;80.22;;;;;;;;;;4999516;28;20831;-80
2024/01/14 06:10:34;;;;;;;74.03;69.78;;;;;;;;;;4990465;28;20274;-80
2024/01/14 06:13:01;;;;;;;84.45;77.80;;;;;;;;;;4988599;28;20671;-80
2024/01/14 06:15:28;;;;;;;82.50;76.10;;;;;;;;;;4999540;28;20279;-79
2024/01/14 06:17:55;;;;;;;85.53;78.55;;;;;;;;;;4999046;28;20222;-79
2024/01/14 06:20:22;;;;;;;76.75;72.00;;;;;;;;;;5000035;28;20304;-80
2024/01/14 06:22:49;;;;;;;91.78;82.60;;;;;;;;;;4999209;28;20262;-79
2024/01/14 06:25:18;;;;;;;84.95;78.63;;;;;;;;;;5000355;28;20226;-79
2024/01/14 06:27:45;;;;;;;83.05;76.25;;;;;;;;;;4999010;28;20218;-80
2024/01/14 06:30:13;;;;;;;74.05;68.75;;;;;;;;;;4999650;28;20625;-79
2024/01/14 06:32:40;;;;;;;77.38;71.47;;;;;;;;;;4983662;28;20246;-82
2024/01/14 06:35:08;;;;;;;80.80;74.97;;;;;;;;;;4983508;28;20286;-80
2024/01/14 06:37:35;;;;;;;75.85;69.93;;;;;;;;;;4991720;28;20214;-83
2024/01/14 06:40:02;;;;;;;74.45;69.38;;;;;;;;;;4992460;28;20210;-80
2024/01/14 06:42:30;;;;;;;77.35;71.97;;;;;;;;;;4999280;28;20210;-79
2024/01/14 06:44:57;;;;;;;74.82;69.07;;;;;;;;;;4999751;28;20277;-80
2024/01/14 06:47:24;;;;;;;75.35;69.75;;;;;;;;;;4998380;28;20272;-80
2024/01/14 06:49:54;;;;;;;75.78;70.10;;;;;;;;;;4979543;28;20219;-79
2024/01/14 06:52:22;;;;;;;75.32;70.80;;;;;;;;;;4979874;28;20337;-80
2024/01/14 06:54:50;;;;;;;73.22;68.10;;;;;;;;;;4979889;28;20230;-80
2024/01/14 06:57:17;;;;;;;76.60;70.90;;;;;;;;;;4993994;28;21138;-80
2024/01/14 06:59:45;;;;;;;76.43;70.47;;;;;;;;;;4992540;28;20280;-80
2024/01/14 07:02:13;;;;;;;73.10;68.72;;;;;;;;;;4988652;28;20612;-80
2024/01/14 07:04:40;;;;;;;79.22;73.00;;;;;;;;;;4999504;28;20243;-80
2024/01/14 07:07:07;;;;;;;65.28;60.85;;;;;;;;;;5000054;28;20570;-81
2024/01/14 07:09:35;;;;;;;80.47;73.95;;;;;;;;;;4999925;28;20214;-80
2024/01/14 07:12:02;;;;;;;67.82;63.83;;;;;;;;;;5000562;28;20681;-81
2024/01/14 07:14:29;;;;;;;69.63;65.07;;;;;;;;;;4995751;28;20207;-80
2024/01/14 07:16:58;;;;;;;75.30;70.40;;;;;;;;;;4979706;28;20214;-81
2024/01/14 07:19:25;;;;;;;73.10;68.60;;;;;;;;;;4979597;28;20615;-83
2024/01/14 07:21:52;;;;;;;79.38;73.50;;;;;;;;;;4980096;28;20207;-81
2024/01/14 07:24:19;;;;;;;84.28;78.35;;;;;;;;;;4985119;28;20206;-81
2024/01/14 07:26:46;;;;;;;87.32;80.50;;;;;;;;;;4999023;28;20248;-81
2024/01/14 07:29:13;;;;;;;87.70;81.07;;;;;;;;;;4980226;28;20214;-81
2024/01/14 07:31:40;;;;;;;84.38;78.82;;;;;;;;;;4996252;28;20226;-80
2024/01/14 07:34:09;;;;;;;85.22;79.38;;;;;;;;;;4995232;28;20214;-81
2024/01/14 07:36:36;;;;;;;77.72;73.32;;;;;;;;;;4998166;28;20716;-81
2024/01/14 07:39:04;;;;;;;79.47;74.75;;;;;;;;;;4993007;28;20272;-81
2024/01/14 07:41:31;;;;;;;77.97;73.05;;;;;;;;;;4997485;28;20210;-81
2024/01/14 07:43:58;;;;;;;88.75;81.72;;;;;;;;;;4993408;28;20219;-81
2024/01/14 07:46:25;;;;;;;87.00;81.18;;;;;;;;;;4993988;28;20292;-80
2024/01/14 07:48:52;;;;;;;76.50;71.65;;;;;;;;;;4995614;28;20710;-81
2024/01/14 07:51:21;;;;;;;83.03;76.82;;;;;;;;;;4979324;28;20229;-82
2024/01/14 07:53:48;;;;;;;80.57;74.45;;;;;;;;;;4985371;28;20233;-86
2024/01/14 07:56:15;;;;;;;74.53;69.70;;;;;;;;;;4989021;28;20306;-81
2024/01/14 07:58:43;;;;;;;83.75;77.00;;;;;;;;;;4987799;28;20198;-81
2024/01/14 08:01:10;;;;;;;77.95;72.43;;;;;;;;;;4988138;28;20958;-82
2024/01/14 08:03:37;;;;;;;77.65;72.15;;;;;;;;;;4988858;28;20210;-81
2024/01/14 08:06:04;;;;;;;69.90;64.90;;;;;;;;;;4991549;28;20230;-83
2024/01/14 08:08:34;;;;;;;74.53;68.43;;;;;;;;;;4995630;28;20206;-81
2024/01/14 08:11:01;;;;;;;76.00;69.30;;;;;;;;;;4999519;28;20249;-81
2024/01/14 08:13:28;;;;;;;66.63;61.75;;;;;;;;;;4999297;28;20245;-81
2024/01/14 08:15:55;;;;;;;71.07;64.72;;;;;;;;;;5000331;28;20234;-81
2024/01/14 08:18:22;;;;;;;67.15;62.03;;;;;;;;;;5000446;28;20195;-80
2024/01/14 08:20:51;;;;;;;62.13;58.30;;;;;;;;;;4998789;28;20665;-87
2024/01/14 08:23:18;;;;;;;70.47;63.63;;;;;;;;;;4997375;28;20782;-80
2024/01/14 08:25:46;;;;;;;68.90;63.90;;;;;;;;;;4998688;28;20297;-80
2024/01/14 08:28:13;;;;;;;60.30;56.03;;;;;;;;;;4999701;28;20696;-81
2024/01/14 08:30:40;;;;;;;74.75;68.15;;;;;;;;;;4999901;28;20236;-81
2024/01/14 08:33:07;;;;;;;81.32;73.10;;;;;;;;;;4998950;28;20206;-81
2024/01/14 08:35:34;;;;;;;78.55;71.60;;;;;;;;;;4995640;28;20977;-79
2024/01/14 08:38:01;;;;;;;68.90;63.83;;;;;;;;;;4995430;28;20620;-83
2024/01/14 08:40:27;;;;;;;83.38;76.63;;;;;;;;;;4994376;28;20288;-78
2024/01/14 08:42:55;;;;;;;67.35;62.60;;;;;;;;;;4992316;28;20202;-78
2024/01/14 08:45:22;;;;;;;72.05;67.07;;;;;;;;;;4996483;28;20234;-79
2024/01/14 08:47:49;;;;;;;69.18;64.20;;;;;;;;;;4996818;28;20212;-81
2024/01/14 08:50:17;;;;;;;72.10;66.85;;;;;;;;;;4993522;28;20238;-81
2024/01/14 08:52:44;;;;;;;85.30;77.60;;;;;;;;;;4977526;28;20629;-80
2024/01/14 08:55:12;;;;;;;184.00;129.30;;;;;;;;;;4978112;28;20234;-81
2024/01/14 08:57:40;;;;;;;86.90;78.97;;;;;;;;;;4978533;28;20693;-81
2024/01/14 09:00:10;;;;;;;77.55;71.35;;;;;;;;;;4992610;28;20268;-82
2024/01/14 09:02:37;;;;;;;87.57;80.22;;;;;;;;;;4995745;28;20322;-80
2024/01/14 09:05:05;;;;;;;75.82;70.15;;;;;;;;;;4996580;28;20309;-81
2024/01/14 09:07:33;;;;;;;85.40;77.05;;;;;;;;;;4997980;28;20210;-81
2024/01/14 09:10:00;;;;;;;90.00;81.80;;;;;;;;;;4997472;28;20214;-82
2024/01/14 09:12:27;;;;;;;87.68;79.13;;;;;;;;;;4999497;28;20229;-82
2024/01/14 09:14:54;;;;;;;69.60;64.85;;;;;;;;;;5001393;28;20237;-82
2024/01/14 09:17:22;;;;;;;74.75;68.88;;;;;;;;;;4983366;28;20218;-81
2024/01/14 09:19:49;;;;;;;81.80;73.75;;;;;;;;;;4982490;28;20210;-80
2024/01/14 09:22:16;;;;;;;86.80;78.25;;;;;;;;;;4980806;28;20218;-83
2024/01/14 09:24:45;;;;;;;88.15;79.13;;;;;;;;;;4979504;28;20278;-81
2024/01/14 09:27:12;;;;;;;80.68;74.13;;;;;;;;;;4980527;28;20211;-80
2024/01/14 09:29:39;;;;;;;85.28;77.38;;;;;;;;;;4980557;28;20274;-82
2024/01/14 09:32:07;;;;;;;67.70;62.63;;;;;;;;;;4981001;28;20238;-79
2024/01/14 09:34:35;;;;;;;64.47;60.58;;;;;;;;;;4980719;28;20202;-81
2024/01/14 09:37:02;;;;;;;71.90;65.07;;;;;;;;;;4980090;28;20222;-81
2024/01/14 09:39:29;;;;;;;62.67;58.30;;;;;;;;;;4993062;28;20206;-80
2024/01/14 09:42:03;;;;;;;79.03;72.63;;;;;;;;;;4991294;28;20211;-81
2024/01/14 09:44:31;;;;;;;78.20;71.82;;;;;;;;;;4999657;28;20217;-81
2024/01/14 09:46:58;;;;;;;79.63;72.20;;;;;;;;;;5000076;28;20670;-80
2024/01/14 09:49:25;;;;;;;66.95;62.25;;;;;;;;;;4999585;28;20225;-80
2024/01/14 09:51:55;;;;;;;76.70;69.90;;;;;;;;;;4999069;28;20230;-81
2024/01/14 09:54:22;;;;;;;79.38;71.40;;;;;;;;;;4998517;28;20214;-81
2024/01/14 09:56:49;;;;;;;71.60;65.65;;;;;;;;;;4999771;28;20210;-80
2024/01/14 09:59:19;;;;;;;77.63;70.40;;;;;;;;;;4999554;28;20284;-78
2024/01/14 10:01:46;;;;;;;69.25;64.57;;;;;;;;;;4998133;28;20202;-81
2024/01/14 10:04:16;;;;;;;64.65;59.08;;;;;;;;;;4998818;28;20210;-84
2024/01/14 10:06:43;;;;;;;75.82;68.15;;;;;;;;;;4998162;28;20257;-80
2024/01/14 10:09:12;;;;;;;75.22;68.70;;;;;;;;;;4999145;28;20264;-83
2024/01/14 10:11:39;;;;;;;66.57;60.90;;;;;;;;;;4993740;28;20225;-82
2024/01/14 10:14:06;;;;;;;73.88;66.60;;;;;;;;;;4997478;28;20214;-82
2024/01/14 10:16:37;;;;;;;73.32;66.90;;;;;;;;;;4985590;28;20242;-81
2024/01/14 10:19:05;;;;;;;77.88;70.57;;;;;;;;;;4979289;28;20667;-82
2024/01/14 10:21:32;;;;;;;71.50;65.72;;;;;;;;;;4979881;28;20214;-83
2024/01/14 10:24:01;;;;;;;71.60;66.15;;;;;;;;;;4977320;28;20266;-83
2024/01/14 10:26:29;;;;;;;67.55;61.85;;;;;;;;;;4978331;28;20234;-83
2024/01/14 10:29:02;;;;;;;65.18;60.58;;;;;;;;;;4997737;28;20423;-80
2024/01/14 10:31:31;;;;;;;67.85;62.10;;;;;;;;;;4986968;28;20838;-81
2024/01/14 10:34:00;;;;;;;65.88;60.65;;;;;;;;;;4983463;28;20222;-83
2024/01/14 10:36:28;;;;;;;66.47;61.53;;;;;;;;;;4981209;28;20317;-86
2024/01/14 10:38:57;;;;;;;65.45;59.83;;;;;;;;;;4980796;28;20655;-85
2024/01/14 10:41:24;;;;;;;63.05;58.97;;;;;;;;;;4982279;28;20788;-85
2024/01/14 10:43:53;;;;;;;70.70;64.95;;;;;;;;;;4999848;28;20234;-87
2024/01/14 10:46:20;;;;;;;60.55;55.67;;;;;;;;;;5000023;28;20225;-84
2024/01/14 10:48:50;;;;;;;67.32;61.88;;;;;;;;;;5000716;28;20240;-82
2024/01/14 10:51:18;;;;;;;79.45;72.13;;;;;;;;;;4999389;28;20211;-82
2024/01/14 10:53:49;;;;;;;78.65;72.22;;;;;;;;;;4993044;28;20737;-82
2024/01/14 10:56:17;;;;;;;75.80;69.53;;;;;;;;;;4985907;28;20313;-81
2024/01/14 10:58:46;;;;;;;64.80;60.58;;;;;;;;;;4999113;28;20289;-81
2024/01/14 11:01:15;;;;;;;67.85;62.70;;;;;;;;;;4984884;28;20261;-82
2024/01/14 11:03:42;;;;;;;67.20;62.45;;;;;;;;;;4990289;28;20284;-82
2024/01/14 11:06:10;;;;;;;78.78;72.32;;;;;;;;;;4997367;28;20256;-80
2024/01/14 11:08:38;;;;;;;66.30;60.60;;;;;;;;;;4982993;28;20729;-82
2024/01/14 11:11:05;;;;;;;69.43;64.45;;;;;;;;;;4986263;28;20202;-82
2024/01/14 11:13:37;;;;;;;77.32;71.03;;;;;;;;;;4981964;28;20301;-81
2024/01/14 11:16:08;;;;;;;72.35;67.10;;;;;;;;;;4984408;28;20238;-83
2024/01/14 11:18:39;;;;;;;88.70;79.95;;;;;;;;;;4993976;28;20214;-84
2024/01/14 11:21:16;;;;;;;68.85;64.68;;;;;;;;;;4986178;28;20210;-81
2024/01/14 11:23:43;;;;;;;67.28;62.63;;;;;;;;;;4984514;28;20211;-83
2024/01/14 11:26:10;;;;;;;61.58;58.00;;;;;;;;;;4982438;28;20225;-83
2024/01/14 11:28:38;;;;;;;66.43;61.42;;;;;;;;;;4998985;28;20217;-82
2024/01/14 11:31:06;;;;;;;80.15;73.20;;;;;;;;;;4983214;28;21086;-83
2024/01/14 11:33:38;;;;;;;76.22;68.53;;;;;;;;;;4978921;28;20226;-83
2024/01/14 11:36:10;;;;;;;77.57;70.13;;;;;;;;;;4995030;28;20233;-85
2024/01/14 11:38:38;;;;;;;86.40;74.85;;;;;;;;;;5001724;28;20199;-83
2024/01/14 11:41:35;;;;;;;77.75;70.88;;;;;;;;;;5000352;28;20278;-84
2024/01/14 11:44:04;;;;;;;75.47;68.80;;;;;;;;;;4959332;29;20720;-83
2024/01/14 11:46:38;;;;;;;96.05;86.32;;;;;;;;;;4991517;28;20241;-84
2024/01/14 11:49:05;;;;;;;93.15;83.68;;;;;;;;;;4997823;28;20225;-85
2024/01/14 11:51:34;;;;;;;72.05;67.03;;;;;;;;;;5001596;28;20213;-84
2024/01/14 11:54:06;;;;;;;90.43;80.63;;;;;;;;;;4999936;28;20792;-81
2024/01/14 11:56:33;;;;;;;95.53;85.22;;;;;;;;;;4993313;28;20225;-84
2024/01/14 11:59:00;;;;;;;93.35;85.07;;;;;;;;;;4982124;28;20215;-82
2024/01/14 12:01:29;;;;;;;87.03;80.75;;;;;;;;;;4990717;28;20210;-82
2024/01/14 12:04:30;;;;;;;82.45;76.30;;;;;;;;;;4998652;28;20681;-85
2024/01/14 12:10:03;;;;;;;99.50;89.63;;;;;;;;;;4988172;28;20236;-75
2024/01/14 12:12:30;;;;;;;86.70;79.75;;;;;;;;;;4971495;28;20597;-76
2024/01/14 12:14:57;;;;;;;72.10;67.57;;;;;;;;;;4981848;28;20242;-76
2024/01/14 12:17:24;;;;;;;77.13;71.57;;;;;;;;;;4990422;28;20214;-76
2024/01/14 12:19:56;;;;;;;81.00;74.97;;;;;;;;;;4991327;28;20292;-76
2024/01/14 12:22:23;;;;;;;81.40;73.95;;;;;;;;;;4991525;28;20269;-75
2024/01/14 12:24:51;;;;;;;78.25;70.72;;;;;;;;;;4991294;28;20550;-76
2024/01/14 12:27:19;;;;;;;75.65;69.55;;;;;;;;;;4990482;28;20747;-75
2024/01/14 12:29:46;;;;;;;84.32;76.97;;;;;;;;;;4991348;28;20634;-76
2024/01/14 12:32:13;;;;;;;92.43;85.05;;;;;;;;;;4991783;28;20221;-75
2024/01/14 12:34:40;;;;;;;78.85;73.82;;;;;;;;;;4991078;28;20210;-75
2024/01/14 12:37:07;;;;;;;77.03;71.60;;;;;;;;;;4990419;28;20210;-76
2024/01/14 12:39:34;;;;;;;87.07;78.70;;;;;;;;;;4991295;28;20230;-75
2024/01/14 12:42:01;;;;;;;94.90;85.90;;;;;;;;;;4991406;28;20209;-75
2024/01/14 12:44:32;;;;;;;103.38;93.30;;;;;;;;;;4991455;28;20214;-75
2024/01/14 12:47:06;;;;;;;105.35;94.25;;;;;;;;;;4996493;28;20269;-75
2024/01/14 12:49:33;;;;;;;88.20;82.47;;;;;;;;;;4997036;28;20226;-76
2024/01/14 12:52:00;;;;;;;95.88;88.13;;;;;;;;;;4998033;28;20210;-76
2024/01/14 12:54:27;;;;;;;83.75;77.93;;;;;;;;;;4997912;28;20218;-76
2024/01/14 12:57:01;;;;;;;86.03;79.50;;;;;;;;;;4997182;28;20213;-75
2024/01/14 12:59:29;;;;;;;96.40;86.53;;;;;;;;;;4997219;28;20228;-76
2024/01/14 13:01:56;;;;;;;92.80;84.25;;;;;;;;;;4997516;28;20609;-76
2024/01/14 13:04:23;;;;;;;82.07;75.60;;;;;;;;;;4998017;28;20201;-77
2024/01/14 13:06:50;;;;;;;83.68;77.28;;;;;;;;;;4997426;28;20260;-75
2024/01/14 13:09:18;;;;;;;97.47;88.13;;;;;;;;;;4996981;28;20779;-75
2024/01/14 13:11:45;;;;;;;78.72;72.97;;;;;;;;;;4997617;28;20213;-76
2024/01/14 13:14:12;;;;;;;86.20;78.45;;;;;;;;;;4997789;28;20222;-76
2024/01/14 13:16:40;;;;;;;89.63;82.07;;;;;;;;;;4996830;28;20218;-75
2024/01/14 13:19:07;;;;;;;83.60;77.78;;;;;;;;;;4985127;28;20223;-75
2024/01/14 13:21:35;;;;;;;92.03;83.20;;;;;;;;;;4977252;28;20678;-76
2024/01/14 13:24:02;;;;;;;106.40;95.80;;;;;;;;;;4978328;28;20203;-77
2024/01/14 13:26:29;;;;;;;91.40;83.95;;;;;;;;;;4977589;28;20257;-75
2024/01/14 13:28:56;;;;;;;106.38;96.18;;;;;;;;;;4977525;28;20645;-75
2024/01/14 13:31:24;;;;;;;92.45;84.88;;;;;;;;;;4978139;28;20206;-75
2024/01/14 13:33:52;;;;;;;84.82;79.28;;;;;;;;;;4986749;28;20277;-78
2024/01/14 13:36:19;;;;;;;106.70;96.43;;;;;;;;;;4997420;28;20206;-77
2024/01/14 13:38:46;;;;;;;100.30;90.25;;;;;;;;;;4997173;28;20276;-78
2024/01/14 13:41:13;;;;;;;110.60;98.60;;;;;;;;;;4987945;28;20682;-75
2024/01/14 13:43:40;;;;;;;118.10;101.22;;;;;;;;;;4978561;28;20615;-75
2024/01/14 13:46:07;;;;;;;68.18;61.70;;;;;;;;;;4996954;28;20218;-77
2024/01/14 13:48:34;;;;;;;65.95;59.88;;;;;;;;;;4997315;28;20254;-78
2024/01/14 13:51:02;;;;;;;79.63;71.68;;;;;;;;;;4997536;28;20218;-78
2024/01/14 13:53:29;;;;;;;72.05;65.63;;;;;;;;;;4997585;28;20701;-77
2024/01/14 13:55:56;;;;;;;77.43;66.72;;;;;;;;;;4997093;28;20732;-79
2024/01/14 13:58:23;;;;;;;74.75;67.22;;;;;;;;;;4994849;28;20229;-77
2024/01/14 14:00:50;;;;;;;67.20;61.47;;;;;;;;;;4994140;28;20268;-79
2024/01/14 14:03:17;;;;;;;80.63;69.60;;;;;;;;;;4994766;28;20206;-78
2024/01/14 14:05:48;;;;;;;84.70;76.38;;;;;;;;;;4994570;28;20222;-78
2024/01/14 14:08:17;;;;;;;104.97;88.30;;;;;;;;;;4993887;28;20284;-77
2024/01/14 14:10:44;;;;;;;84.00;75.40;;;;;;;;;;4993804;28;20233;-79
2024/01/14 14:13:11;;;;;;;95.82;85.55;;;;;;;;;;4994495;28;20226;-78
2024/01/14 14:15:38;;;;;;;130.95;98.57;;;;;;;;;;4994505;28;20662;-77
2024/01/14 14:18:07;;;;;;;116.78;103.95;;;;;;;;;;4993609;28;20941;-76
2024/01/14 14:20:34;;;;;;;114.07;101.70;;;;;;;;;;4993489;28;20249;-77
2024/01/14 14:23:02;;;;;;;88.90;82.32;;;;;;;;;;4993201;28;20206;-77